Silver Lion — V2QQ4 — position and weather

sailwx.info

Track history (hours):
 
Tides and Currents Weather Stations Pressure Air Temp Water Temp Dewpoint Dewpoint Depression Visibility Wind Speed Wind Dir Waves Ship Positions

Silver Lion

Last reported at 2018-Jun-13 05:00 UTC. Time now 2018-Jun-18 19:33 UTC.
Position N 40°45' E 029°20'.

Length 127 m; draft 3.5 m.

Type: Cargo ship. MMSI: 304072000.

Date/timePositionNaut miles runAvg speedWind from/ knotsBaromVisibWave heightAir tempDewpointWater temp
2018-Jun-13 05:00N 40°45' E 029°20'  
2018-Jun-10 06:13N 41°17' E 029°03'0 0.0
2018-Jun-10 05:58N 41°17' E 029°03'0 0.0
2018-Jun-10 05:28N 41°17' E 029°03'0 0.0
2018-Jun-10 04:25N 41°17' E 029°03'0 0.0
2018-Jun-10 03:58N 41°17' E 029°03'0 0.0
2018-Jun-10 03:28N 41°17' E 029°03'0 0.0
2018-Jun-10 02:41N 41°17' E 029°03'0 0.4
2018-Jun-10 02:31N 41°17' E 029°03'7 6.5
2018-Jun-10 01:22N 41°21' E 029°11'3 6.9
2018-Jun-10 01:00N 41°22' E 029°14'3 6.9
2018-Jun-10 00:30N 41°24' E 029°17'4 7.1
2018-Jun-10 00:00N 41°26' E 029°21'3 7.0
2018-Jun-09 23:30N 41°28' E 029°25'3 6.8
2018-Jun-09 23:00N 41°30' E 029°29'3 6.7
2018-Jun-09 22:30N 41°32' E 029°33'2 4.2
2018-Jun-09 21:56N 41°34' E 029°35'2 4.6
2018-Jun-09 21:30N 41°34' E 029°38'3 6.6
2018-Jun-09 21:00N 41°36' E 029°41'3 6.8
2018-Jun-09 20:30N 41°38' E 029°45'4 7.0
2018-Jun-09 20:00N 41°40' E 029°49'4 7.1
2018-Jun-09 19:30N 41°42' E 029°53'4 7.2
2018-Jun-09 19:00N 41°44' E 029°57'4 7.2
2018-Jun-09 18:30N 41°45' E 030°01'4 7.2
2018-Jun-09 18:00N 41°47' E 030°05'4 7.3
2018-Jun-09 17:30N 41°50' E 030°09'4 7.2
2018-Jun-09 17:00N 41°52' E 030°13'4 7.4
2018-Jun-09 16:30N 41°54' E 030°17'4 7.3
2018-Jun-09 16:00N 41°56' E 030°21'7 7.3
2018-Jun-09 15:00N 41°60' E 030°30'4 7.3
2018-Jun-09 14:30N 42°02' E 030°34'4 7.3
2018-Jun-09 13:59N 42°04' E 030°38'4 7.4
2018-Jun-09 13:30N 42°06' E 030°42'4 7.5
2018-Jun-09 13:00N 42°08' E 030°46'4 7.5
2018-Jun-09 12:30N 42°10' E 030°50'4 7.6
2018-Jun-09 12:00N 42°12' E 030°55'4 7.7
2018-Jun-09 11:30N 42°14' E 030°59'4 7.7
2018-Jun-09 11:00N 42°16' E 031°04'4 7.8
2018-Jun-09 10:28N 42°18' E 031°08'3 7.7
2018-Jun-09 10:00N 42°20' E 031°12'4 7.5
2018-Jun-09 09:30N 42°22' E 031°17'4 7.6
2018-Jun-09 09:00N 42°24' E 031°21'4 7.6
2018-Jun-09 08:30N 42°26' E 031°25'5 7.5
2018-Jun-09 07:53N 42°29' E 031°30'8 7.3
2018-Jun-09 06:48N 42°33' E 031°39'2 7.4
2018-Jun-09 06:30N 42°34' E 031°42'4 7.3
2018-Jun-09 06:00N 42°36' E 031°46'4 7.4
2018-Jun-09 05:29N 42°39' E 031°50'4 7.4
2018-Jun-09 05:00N 42°41' E 031°54'4 7.4
2018-Jun-09 04:30N 42°43' E 031°59'4 7.6
2018-Jun-09 04:00N 42°45' E 032°03'4 7.6
2018-Jun-09 03:30N 42°47' E 032°07'4 7.7
2018-Jun-09 02:58N 42°49' E 032°12'4 7.8
2018-Jun-09 02:29N 42°51' E 032°16'4 7.7
2018-Jun-09 02:00N 42°53' E 032°20'4 7.7
2018-Jun-09 01:30N 42°56' E 032°24'5 7.8
2018-Jun-09 00:53N 42°58' E 032°30'3 7.9
2018-Jun-09 00:30N 42°60' E 032°34'4 8.0
2018-Jun-08 23:57N 43°02' E 032°38'4 8.0
2018-Jun-08 23:30N 43°04' E 032°43'48 8.2
2018-Jun-08 17:36N 43°30' E 033°38'157 7.3
2018-Jun-07 20:16N 45°08' E 036°29'2 7.5
2018-Jun-07 19:58N 45°10' E 036°28'3 7.4
2018-Jun-07 19:30N 45°14' E 036°28'3 6.7
2018-Jun-07 19:01N 45°17' E 036°28'4 7.7
2018-Jun-07 18:30N 45°19' E 036°33'4 8.1
2018-Jun-07 18:00N 45°21' E 036°38'3 6.9
2018-Jun-07 17:30N 45°24' E 036°40'4 7.8
2018-Jun-07 17:00N 45°28' E 036°41'3 6.0
2018-Jun-07 16:31N 45°31' E 036°41'1 1.7
2018-Jun-07 16:00N 45°30' E 036°41'1 2.6
2018-Jun-07 15:30N 45°29' E 036°42'3 6.2
2018-Jun-07 15:00N 45°29' E 036°47'4 7.2
2018-Jun-07 14:30N 45°30' E 036°52'  
2018-Jun-05 01:16N 45°23' E 037°21'0 0.0
2018-Jun-05 00:55N 45°23' E 037°21'0 0.0
2018-Jun-05 00:28N 45°23' E 037°21'0 0.0
2018-Jun-04 23:58N 45°23' E 037°21'0 0.0
2018-Jun-04 23:28N 45°23' E 037°21'0 0.0
2018-Jun-04 22:22N 45°23' E 037°21'0 0.0
2018-Jun-04 21:52N 45°23' E 037°21'0 0.0
2018-Jun-04 21:28N 45°23' E 037°21'0 0.0
2018-Jun-04 20:58N 45°23' E 037°21'0 0.0
2018-Jun-04 20:25N 45°23' E 037°21'0 0.0
2018-Jun-03 23:21N 45°23' E 037°21'0 0.0
2018-Jun-03 22:54N 45°23' E 037°21'0 0.0
2018-Jun-03 22:30N 45°23' E 037°21'0 0.0
2018-Jun-03 21:12N 45°23' E 037°21'0 0.0
2018-Jun-03 20:50N 45°23' E 037°21'  
Track history (hours):
 
Tides and Currents Weather Stations Pressure Air Temp Water Temp Dewpoint Dewpoint Depression Visibility Wind Speed Wind Dir Waves Ship Positions

Silver Lion

Last reported at 2018-Jun-13 05:00 UTC. Time now 2018-Jun-18 19:33 UTC.
Position N 40°45' E 029°20'.

Length 127 m; draft 3.5 m.

Type: Cargo ship. MMSI: 304072000.

Date/timePositionNaut miles runAvg speedWind from/ knotsBaromVisibWave heightAir tempDewpointWater temp
2018-Jun-13 05:00N 40°45' E 029°20'  
2018-Jun-10 06:13N 41°17' E 029°03'0 0.0
2018-Jun-10 05:58N 41°17' E 029°03'0 0.0
2018-Jun-10 05:28N 41°17' E 029°03'0 0.0
2018-Jun-10 04:25N 41°17' E 029°03'0 0.0
2018-Jun-10 03:58N 41°17' E 029°03'0 0.0
2018-Jun-10 03:28N 41°17' E 029°03'0 0.0
2018-Jun-10 02:41N 41°17' E 029°03'0 0.4
2018-Jun-10 02:31N 41°17' E 029°03'7 6.5
2018-Jun-10 01:22N 41°21' E 029°11'3 6.9
2018-Jun-10 01:00N 41°22' E 029°14'3 6.9
2018-Jun-10 00:30N 41°24' E 029°17'4 7.1
2018-Jun-10 00:00N 41°26' E 029°21'3 7.0
2018-Jun-09 23:30N 41°28' E 029°25'3 6.8
2018-Jun-09 23:00N 41°30' E 029°29'3 6.7
2018-Jun-09 22:30N 41°32' E 029°33'2 4.2
2018-Jun-09 21:56N 41°34' E 029°35'2 4.6
2018-Jun-09 21:30N 41°34' E 029°38'3 6.6
2018-Jun-09 21:00N 41°36' E 029°41'3 6.8
2018-Jun-09 20:30N 41°38' E 029°45'4 7.0
2018-Jun-09 20:00N 41°40' E 029°49'4 7.1
2018-Jun-09 19:30N 41°42' E 029°53'4 7.2
2018-Jun-09 19:00N 41°44' E 029°57'4 7.2
2018-Jun-09 18:30N 41°45' E 030°01'4 7.2
2018-Jun-09 18:00N 41°47' E 030°05'4 7.3
2018-Jun-09 17:30N 41°50' E 030°09'4 7.2
2018-Jun-09 17:00N 41°52' E 030°13'4 7.4
2018-Jun-09 16:30N 41°54' E 030°17'4 7.3
2018-Jun-09 16:00N 41°56' E 030°21'7 7.3
2018-Jun-09 15:00N 41°60' E 030°30'4 7.3
2018-Jun-09 14:30N 42°02' E 030°34'4 7.3
2018-Jun-09 13:59N 42°04' E 030°38'4 7.4
2018-Jun-09 13:30N 42°06' E 030°42'4 7.5
2018-Jun-09 13:00N 42°08' E 030°46'4 7.5
2018-Jun-09 12:30N 42°10' E 030°50'4 7.6
2018-Jun-09 12:00N 42°12' E 030°55'4 7.7
2018-Jun-09 11:30N 42°14' E 030°59'4 7.7
2018-Jun-09 11:00N 42°16' E 031°04'4 7.8
2018-Jun-09 10:28N 42°18' E 031°08'3 7.7
2018-Jun-09 10:00N 42°20' E 031°12'4 7.5
2018-Jun-09 09:30N 42°22' E 031°17'4 7.6
2018-Jun-09 09:00N 42°24' E 031°21'4 7.6
2018-Jun-09 08:30N 42°26' E 031°25'5 7.5
2018-Jun-09 07:53N 42°29' E 031°30'8 7.3
2018-Jun-09 06:48N 42°33' E 031°39'2 7.4
2018-Jun-09 06:30N 42°34' E 031°42'4 7.3
2018-Jun-09 06:00N 42°36' E 031°46'4 7.4
2018-Jun-09 05:29N 42°39' E 031°50'4 7.4
2018-Jun-09 05:00N 42°41' E 031°54'4 7.4
2018-Jun-09 04:30N 42°43' E 031°59'4 7.6
2018-Jun-09 04:00N 42°45' E 032°03'4 7.6
2018-Jun-09 03:30N 42°47' E 032°07'4 7.7
2018-Jun-09 02:58N 42°49' E 032°12'4 7.8
2018-Jun-09 02:29N 42°51' E 032°16'4 7.7
2018-Jun-09 02:00N 42°53' E 032°20'4 7.7
2018-Jun-09 01:30N 42°56' E 032°24'5 7.8
2018-Jun-09 00:53N 42°58' E 032°30'3 7.9
2018-Jun-09 00:30N 42°60' E 032°34'4 8.0
2018-Jun-08 23:57N 43°02' E 032°38'4 8.0
2018-Jun-08 23:30N 43°04' E 032°43'48 8.2
2018-Jun-08 17:36N 43°30' E 033°38'157 7.3
2018-Jun-07 20:16N 45°08' E 036°29'2 7.5
2018-Jun-07 19:58N 45°10' E 036°28'3 7.4
2018-Jun-07 19:30N 45°14' E 036°28'3 6.7
2018-Jun-07 19:01N 45°17' E 036°28'4 7.7
2018-Jun-07 18:30N 45°19' E 036°33'4 8.1
2018-Jun-07 18:00N 45°21' E 036°38'3 6.9
2018-Jun-07 17:30N 45°24' E 036°40'4 7.8
2018-Jun-07 17:00N 45°28' E 036°41'3 6.0
2018-Jun-07 16:31N 45°31' E 036°41'1 1.7
2018-Jun-07 16:00N 45°30' E 036°41'1 2.6
2018-Jun-07 15:30N 45°29' E 036°42'3 6.2
2018-Jun-07 15:00N 45°29' E 036°47'4 7.2
2018-Jun-07 14:30N 45°30' E 036°52'  
2018-Jun-05 01:16N 45°23' E 037°21'0 0.0
2018-Jun-05 00:55N 45°23' E 037°21'0 0.0
2018-Jun-05 00:28N 45°23' E 037°21'0 0.0
2018-Jun-04 23:58N 45°23' E 037°21'0 0.0
2018-Jun-04 23:28N 45°23' E 037°21'0 0.0
2018-Jun-04 22:22N 45°23' E 037°21'0 0.0
2018-Jun-04 21:52N 45°23' E 037°21'0 0.0
2018-Jun-04 21:28N 45°23' E 037°21'0 0.0
2018-Jun-04 20:58N 45°23' E 037°21'0 0.0
2018-Jun-04 20:25N 45°23' E 037°21'0 0.0
2018-Jun-03 23:21N 45°23' E 037°21'0 0.0
2018-Jun-03 22:54N 45°23' E 037°21'0 0.0
2018-Jun-03 22:30N 45°23' E 037°21'0 0.0
2018-Jun-03 21:12N 45°23' E 037°21'0 0.0
2018-Jun-03 20:50N 45°23' E 037°21'  

Dump ship's entire track history